Impacts TAF Board INFO
FOR SITUATIONAL AWARENESS. NOT TO BE USED FOR FLIGHT PLANNING PURPOSES.
IDs:

KATL - Atlanta/Hartsfield-J, GA, US

Issued at 1930 UTC 24 Mar 2017
Updated at 2000 UTC 24 Mar 2017
Potential Impact None Slight Moderate High
Time1952Z 24/20Z 24/21Z 24/22Z 24/23Z 25/00Z 25/01Z 25/02Z 25/03Z 25/04Z 25/05Z 25/06Z 25/07Z 25/08Z
Type OBS PRVL PRVL PRVL PRVL PRVL PRVL PRVL PRVL PRVL PRVL PRVL PRVL PRVL
VIS 10 >6 >6 >6 >6 >6 >6 >6 >6 >6 >6 >6 >6 >6
CIG 250 250 250 250 250 250 250 250 250 250 250 250 250 250
Cover BKN BKN BKN BKN BKN BKN BKN BKN BKN BKN BKN BKN BKN BKN
FltCat VFR VFR VFR VFR VFR VFR VFR VFR VFR VFR VFR VFR VFR VFR
WX -- -- -- -- -- -- -- -- -- -- -- -- -- --
WDir 130 150 150 150 150 130 130 130 130 130 130 130 130 130
WSpd 10 12 12 12 12 7 7 7 7 7 7 7 7 7
WGst -- 16 16 16 16 -- -- -- -- -- -- -- -- --

Raw TAF
KATL 241930Z 2420/2524 15012G16KT P6SM FEW060 BKN250
  FM250000 13007KT P6SM FEW150 BKN250
  FM250900 14006KT P6SM SCT012 BKN022
  FM251500 16011KT P6SM BKN035
  FM251900 16011KT P6SM BKN040
  PROB30 2522/2524 -TSRA BKN035CB


Raw METAR
KATL 241952Z 13010KT 10SM FEW050 BKN250 22/09 A3034 RMK AO2 SLP269 T02220089
KATL 241852Z 16011G16KT 10SM FEW055 BKN250 22/09 A3035 RMK AO2 SLP274 T02220089
KATL 241752Z 15012KT 10SM BKN200 BKN250 21/09 A3037 RMK AO2 SLP280 T02110089 10211 20128 58024
KATL 241652Z 15012G19KT 10SM FEW040 FEW075 SCT250 19/09 A3041 RMK AO2 SLP295 T01940089

METAR Board
Radar Display
Forecast Discussion

FOR SITUATIONAL AWARENESS. NOT TO BE USED FOR FLIGHT PLANNING PURPOSES.

Page loaded:  20:00 UTC  |   01:00 PM Pacific  |   02:00 PM Mountain  |   03:00 PM Central  |   04:00 PM Eastern

 

ADVISORIES

FORECASTS

FORECASTS

OBSERVATIONS

USER TOOLS

ABOUT US